createdAt,value
2019-01-03T09:08:34.758Z,19.39
2019-01-03T09:10:35.033Z,19.43
2019-01-03T09:12:34.792Z,19.54
2019-01-03T09:14:34.817Z,19.62
2019-01-03T09:16:34.918Z,19.65
2019-01-03T09:18:34.841Z,19.65
2019-01-03T09:20:34.901Z,19.69
2019-01-03T09:22:34.943Z,19.73
2019-01-03T09:24:34.925Z,19.75
2019-01-03T09:26:34.877Z,19.74
2019-01-03T09:28:34.961Z,19.74
2019-01-03T09:30:39.903Z,19.80
2019-01-03T09:32:34.850Z,19.89
2019-01-03T09:34:34.844Z,19.90
2019-01-03T09:36:34.725Z,19.92
2019-01-03T09:38:35.075Z,19.95
2019-01-03T09:40:34.886Z,19.98
2019-01-03T09:42:36.013Z,20.00
2019-01-03T09:48:34.817Z,19.93
2019-01-03T09:50:39.778Z,19.90
2019-01-03T09:54:34.854Z,19.81
2019-01-03T09:56:34.935Z,19.79
2019-01-03T10:00:34.786Z,19.72
2019-01-03T10:02:34.974Z,19.39
2019-01-03T10:06:34.871Z,18.30
2019-01-03T10:08:35.013Z,18.58
2019-01-03T10:12:34.900Z,18.79
2019-01-03T10:14:37.670Z,18.44
2019-01-03T10:18:34.931Z,18.90
2019-01-03T10:20:34.950Z,19.00
2019-01-03T10:24:34.787Z,19.13
2019-01-03T10:26:34.990Z,19.19
2019-01-03T10:30:34.956Z,19.36
2019-01-03T10:32:34.876Z,19.42
2019-01-03T10:36:34.754Z,19.45
2019-01-03T10:38:34.761Z,19.45
2019-01-03T10:42:39.905Z,19.44
2019-01-03T10:44:34.805Z,19.38
2019-01-03T10:48:37.750Z,19.19
2019-01-03T10:50:37.464Z,19.27
2019-01-03T10:54:34.821Z,19.22
2019-01-03T10:56:34.782Z,19.25
2019-01-03T11:00:34.806Z,19.34
2019-01-03T11:02:34.782Z,19.40
2019-01-03T11:06:34.762Z,19.43
2019-01-03T11:08:39.835Z,19.44
2019-01-03T11:12:39.143Z,19.46
2019-01-03T11:14:40.022Z,19.47
2019-01-03T11:18:34.821Z,19.41
2019-01-03T11:20:34.810Z,19.37
2019-01-03T11:24:34.855Z,19.35
2019-01-03T11:26:34.791Z,19.33
2019-01-03T11:30:40.006Z,19.33
2019-01-03T11:32:35.775Z,19.32
2019-01-03T11:36:34.780Z,19.33
2019-01-03T11:38:34.804Z,19.32
2019-01-03T11:42:34.804Z,19.33
2019-01-03T11:44:35.003Z,19.33
2019-01-03T11:48:39.998Z,19.21
2019-01-03T11:50:34.839Z,19.23
2019-01-03T11:54:34.784Z,19.25
2019-01-03T11:56:34.846Z,19.27
2019-01-03T12:00:34.799Z,19.31
2019-01-03T12:02:34.822Z,19.27
2019-01-03T12:06:35.756Z,19.25
2019-01-03T12:08:34.817Z,19.27
2019-01-03T12:12:34.838Z,19.22
2019-01-03T12:14:34.878Z,19.20
2019-01-03T12:18:34.824Z,19.17
2019-01-03T12:20:34.814Z,19.13
2019-01-03T12:23:48.101Z,19.12
2019-01-03T12:25:49.120Z,19.10
2019-01-03T12:27:48.093Z,19.11
2019-01-03T12:29:48.104Z,19.14
2019-01-03T12:31:48.075Z,19.17
2019-01-03T12:33:48.096Z,19.23
2019-01-03T12:35:48.189Z,19.28
2019-01-03T12:37:48.110Z,19.31
2019-01-03T12:39:48.126Z,19.32
2019-01-03T12:41:48.207Z,19.29
2019-01-03T12:43:48.135Z,19.26
2019-01-03T12:45:53.342Z,19.26
2019-01-03T12:47:48.170Z,19.26
2019-01-03T12:49:48.152Z,19.24
2019-01-03T12:51:48.185Z,19.28
2019-01-03T12:53:48.215Z,19.33
2019-01-03T12:55:48.158Z,19.35
2019-01-03T12:57:48.126Z,19.37
2019-01-03T12:59:48.188Z,19.37
2019-01-03T13:01:48.123Z,19.38
2019-01-03T13:03:49.887Z,19.36
2019-01-03T13:05:48.282Z,19.34
2019-01-03T13:07:48.120Z,19.33
2019-01-03T13:09:48.143Z,19.31
2019-01-03T13:11:48.242Z,19.34
2019-01-03T13:13:48.129Z,19.33
2019-01-03T13:15:48.160Z,19.33
2019-01-03T13:17:48.170Z,19.32
2019-01-03T13:19:48.131Z,19.30
2019-01-03T13:21:48.145Z,19.26
2019-01-03T13:23:48.190Z,19.26
2019-01-03T13:25:48.142Z,19.24
2019-01-03T13:27:48.362Z,19.13
2019-01-03T13:29:48.199Z,19.07
2019-01-03T13:31:48.165Z,19.13
2019-01-03T13:33:48.187Z,19.19
2019-01-03T13:35:48.164Z,19.22
2019-01-03T13:37:52.594Z,19.23
2019-01-03T13:40:05.243Z,19.22
2019-01-03T13:41:48.226Z,19.22
2019-01-03T13:43:48.169Z,19.22
2019-01-03T13:45:48.165Z,19.22
2019-01-03T13:47:48.220Z,19.22
2019-01-03T13:49:48.183Z,19.19
2019-01-03T13:51:48.145Z,19.25
2019-01-03T13:53:48.210Z,19.25
2019-01-03T13:55:48.168Z,19.20
2019-01-03T13:57:48.151Z,19.18
2019-01-03T13:59:48.187Z,19.17
2019-01-03T14:01:48.150Z,19.15
2019-01-03T14:03:48.144Z,19.14
2019-01-03T14:05:48.187Z,19.12
2019-01-03T14:07:48.151Z,19.11
2019-01-03T14:09:48.163Z,19.12
2019-01-03T14:11:48.196Z,19.15
2019-01-03T14:13:48.150Z,19.15
2019-01-03T14:15:48.158Z,19.15
2019-01-03T14:17:48.191Z,19.15
2019-01-03T14:19:48.151Z,19.17
2019-01-03T14:21:48.164Z,19.18
2019-01-03T14:23:48.196Z,19.17
2019-01-03T14:25:48.178Z,19.16
2019-01-03T14:27:48.143Z,19.16
2019-01-03T14:29:48.199Z,19.18
2019-01-03T14:31:48.178Z,19.20
2019-01-03T14:33:48.188Z,19.22
2019-01-03T14:35:48.193Z,19.22
2019-01-03T14:37:48.188Z,19.21
2019-01-03T14:39:48.163Z,19.22
2019-01-03T14:41:48.196Z,19.24
2019-01-03T14:43:48.154Z,19.25
2019-01-03T14:45:48.172Z,19.25
2019-01-03T14:47:48.217Z,19.24
2019-01-03T14:49:48.192Z,19.26
2019-01-03T14:51:48.178Z,19.26
2019-01-03T14:53:48.193Z,19.27
2019-01-03T14:55:48.189Z,19.28
2019-01-03T14:57:48.205Z,19.27
2019-01-03T14:59:48.220Z,19.27
2019-01-03T15:01:48.178Z,19.28
2019-01-03T15:03:48.163Z,19.28
2019-01-03T15:05:48.197Z,19.29
2019-01-03T15:07:48.168Z,19.27
2019-01-03T15:09:48.218Z,19.28
2019-01-03T15:11:48.244Z,19.29
2019-01-03T15:13:48.198Z,19.30
2019-01-03T15:15:48.187Z,19.31
2019-01-03T15:17:48.210Z,19.29
2019-01-03T15:19:48.194Z,19.29
2019-01-03T15:21:48.184Z,19.30
2019-01-03T15:23:48.225Z,19.32
2019-01-03T15:25:48.171Z,19.33
2019-01-03T15:27:48.220Z,19.34
2019-01-03T15:29:48.272Z,19.31
2019-01-03T15:31:48.184Z,19.32
2019-01-03T15:33:48.216Z,19.34
2019-01-03T15:35:48.473Z,19.34
2019-01-03T15:37:48.224Z,19.33
2019-01-03T15:39:48.194Z,19.33
2019-01-03T15:41:48.270Z,19.32
2019-01-03T15:43:49.267Z,19.34
2019-01-03T15:45:48.203Z,19.35
2019-01-03T15:47:48.264Z,19.35
2019-01-03T15:49:48.232Z,19.33
2019-01-03T15:51:48.240Z,19.34
2019-01-03T15:53:48.230Z,19.35
2019-01-03T15:55:48.229Z,19.36
2019-01-03T15:57:48.214Z,19.35
2019-01-03T15:59:48.262Z,19.35
2019-01-03T16:01:48.216Z,19.37
2019-01-03T16:03:48.202Z,19.38
2019-01-03T16:05:48.256Z,19.40
2019-01-03T16:07:48.213Z,19.40
2019-01-03T16:09:48.228Z,19.40
2019-01-03T16:11:48.268Z,19.39
2019-01-03T16:13:48.206Z,19.40
2019-01-03T16:15:48.291Z,19.43
2019-01-03T16:17:48.284Z,19.44
2019-01-03T16:19:48.237Z,19.45
2019-01-03T16:21:48.232Z,19.44
2019-01-03T16:23:48.245Z,19.42
2019-01-03T16:25:48.273Z,19.43
2019-01-03T16:27:48.230Z,19.44
2019-01-03T16:29:48.250Z,19.44
2019-01-03T16:31:48.243Z,19.43
2019-01-03T16:33:48.233Z,19.43
2019-01-03T16:35:49.620Z,19.44
2019-01-03T16:37:48.224Z,19.44
2019-01-03T16:39:48.214Z,19.43
2019-01-03T16:41:48.265Z,19.40
2019-01-03T16:43:48.244Z,19.38
2019-01-03T16:45:48.252Z,19.34
2019-01-03T16:47:48.252Z,19.31
2019-01-03T16:49:48.256Z,19.27
2019-01-03T16:51:48.269Z,19.10
2019-01-03T16:53:48.308Z,19.04
2019-01-03T16:55:48.289Z,19.08
2019-01-03T16:57:48.250Z,19.10
2019-01-03T16:59:48.246Z,19.06
2019-01-03T17:01:48.273Z,19.02
2019-01-03T17:03:48.265Z,18.98
2019-01-03T17:05:48.286Z,18.95
2019-01-03T17:07:48.267Z,18.94
2019-01-03T17:09:49.249Z,18.92
2019-01-03T17:11:48.280Z,18.94
2019-01-03T17:13:48.246Z,18.92
2019-01-03T17:15:48.304Z,18.92
2019-01-03T17:17:48.284Z,18.85
2019-01-03T17:19:48.263Z,18.83
2019-01-03T17:21:48.295Z,18.82
2019-01-03T17:23:48.328Z,18.75
2019-01-03T17:25:48.266Z,18.72
2019-01-03T17:27:48.262Z,18.71
2019-01-03T17:29:48.307Z,18.72
2019-01-03T17:31:48.317Z,18.67
2019-01-03T17:33:52.733Z,18.67
2019-01-03T17:35:48.311Z,18.68
2019-01-03T17:37:48.309Z,18.71
2019-01-03T17:39:48.279Z,18.68
2019-01-03T17:41:48.313Z,18.68
2019-01-03T17:43:48.312Z,18.71
2019-01-03T17:45:48.270Z,18.74
2019-01-03T17:47:48.320Z,18.74
2019-01-03T17:49:48.295Z,18.71
2019-01-03T17:51:48.281Z,18.66
2019-01-03T17:53:48.361Z,18.64
2019-01-03T17:55:49.088Z,18.63
2019-01-03T17:57:48.263Z,18.62
2019-01-03T17:59:48.518Z,18.62
2019-01-03T18:01:48.316Z,18.62
2019-01-03T18:03:48.303Z,18.60
2019-01-03T18:05:48.358Z,18.56
2019-01-03T18:07:48.293Z,18.52
2019-01-03T18:09:48.310Z,18.50
2019-01-03T18:11:49.059Z,18.47
2019-01-03T18:13:48.472Z,18.47
2019-01-03T18:15:48.307Z,18.45
2019-01-03T18:17:48.346Z,18.43
2019-01-03T18:19:48.313Z,18.42
2019-01-03T18:21:53.549Z,18.39
2019-01-03T18:23:48.322Z,18.38
2019-01-03T18:25:48.323Z,18.37
2019-01-03T18:27:48.343Z,18.33
2019-01-03T18:29:49.505Z,18.32
2019-01-03T18:31:48.330Z,18.32
2019-01-03T18:33:48.319Z,18.30
2019-01-03T18:35:48.339Z,18.28
2019-01-03T18:37:48.318Z,18.25
2019-01-03T18:39:48.338Z,18.25
2019-01-03T18:41:48.508Z,18.24
2019-01-03T18:43:48.287Z,18.22
2019-01-03T18:45:48.291Z,18.21
2019-01-03T18:47:48.353Z,18.27
2019-01-03T18:49:48.484Z,18.36
2019-01-03T18:51:48.336Z,18.53
2019-01-03T18:53:48.532Z,18.67
2019-01-03T18:57:48.313Z,19.11
2019-01-03T18:59:48.350Z,19.32
2019-01-03T19:01:48.334Z,19.43
2019-01-03T19:03:48.342Z,19.51
2019-01-03T19:05:48.343Z,19.57
2019-01-03T19:07:48.339Z,19.65
2019-01-03T19:09:48.315Z,19.74
2019-01-03T19:11:48.386Z,19.76
2019-01-03T19:13:48.343Z,19.73
2019-01-03T19:15:51.833Z,19.74
2019-01-03T19:17:48.356Z,19.79
2019-01-03T19:19:49.264Z,19.83
2019-01-03T19:21:48.314Z,19.85
2019-01-03T19:23:48.445Z,19.86
2019-01-03T19:25:48.331Z,19.87
2019-01-03T19:27:48.336Z,19.89
2019-01-03T19:29:48.352Z,19.93
2019-01-03T19:31:48.445Z,19.92
2019-01-03T19:33:48.363Z,19.92
2019-01-03T19:35:48.376Z,19.89
2019-01-03T19:37:48.504Z,19.87
2019-01-03T19:39:48.308Z,19.92
2019-01-03T19:41:48.359Z,19.92
2019-01-03T19:43:48.366Z,19.92
2019-01-03T19:45:50.685Z,19.91
2019-01-03T19:47:48.368Z,19.89
2019-01-03T19:49:48.338Z,19.91
2019-01-03T19:51:48.379Z,19.91
2019-01-03T19:53:48.365Z,19.89
2019-01-03T19:55:48.341Z,19.91
2019-01-03T19:57:48.370Z,19.92
2019-01-03T19:59:48.548Z,19.95
2019-01-03T20:01:48.341Z,19.93
2019-01-03T20:03:48.586Z,19.88
2019-01-03T20:05:50.294Z,19.84
2019-01-03T20:07:48.362Z,19.80
2019-01-03T20:09:48.333Z,19.80
2019-01-03T20:11:48.371Z,19.80
2019-01-03T20:13:48.366Z,19.83
2019-01-03T20:15:48.338Z,19.80
2019-01-03T20:21:48.340Z,19.75
2019-01-03T20:23:48.442Z,19.67
2019-01-03T20:27:48.382Z,19.69
2019-01-03T20:29:48.431Z,19.71
2019-01-03T20:33:50.459Z,19.61
2019-01-03T20:35:48.364Z,19.61
2019-01-03T20:39:53.845Z,19.66
2019-01-03T20:41:48.389Z,19.62
2019-01-03T20:45:48.605Z,19.59
2019-01-03T20:47:48.408Z,19.69
2019-01-03T20:51:48.377Z,19.63
2019-01-03T20:53:48.349Z,19.58
2019-01-03T20:57:48.365Z,19.61
2019-01-03T20:59:48.360Z,19.70
2019-01-03T21:03:48.574Z,19.59
2019-01-03T21:05:53.008Z,19.62
2019-01-03T21:09:48.371Z,19.56
2019-01-03T21:11:48.410Z,19.52
2019-01-03T21:15:53.624Z,19.44
2019-01-03T21:17:48.626Z,19.45
2019-01-03T21:21:48.432Z,19.43
2019-01-03T21:23:48.394Z,19.38
2019-01-03T21:27:48.395Z,19.38
2019-01-03T21:29:49.106Z,19.42
2019-01-03T21:33:49.924Z,19.37
2019-01-03T21:35:48.645Z,19.37
2019-01-03T21:39:48.402Z,19.37
2019-01-03T21:41:48.423Z,19.41
2019-01-03T21:45:48.434Z,19.40
2019-01-03T21:47:48.416Z,19.37
2019-01-03T21:51:48.393Z,19.26
2019-01-03T21:53:48.459Z,19.23
2019-01-03T21:57:48.414Z,19.15
2019-01-03T21:59:48.446Z,19.08
2019-01-03T22:03:48.434Z,18.98
2019-01-03T22:05:48.449Z,18.93
2019-01-03T22:09:48.441Z,18.88
2019-01-03T22:11:48.424Z,18.88
2019-01-03T22:15:48.429Z,18.87
2019-01-03T22:17:48.428Z,18.85
2019-01-03T22:21:48.791Z,18.77
2019-01-03T22:23:48.417Z,18.74
2019-01-03T22:27:48.454Z,18.68
2019-01-03T22:29:48.417Z,18.65
2019-01-03T22:33:48.455Z,18.58
2019-01-03T22:35:48.424Z,18.56
2019-01-03T22:39:48.427Z,18.51
2019-01-03T22:41:48.536Z,18.47
2019-01-03T22:45:48.415Z,18.44
2019-01-03T22:47:48.438Z,18.41
2019-01-03T22:53:48.432Z,18.39
2019-01-03T22:55:48.476Z,18.36
2019-01-03T22:59:48.443Z,18.32
2019-01-03T23:01:48.437Z,18.29
2019-01-03T23:05:48.517Z,18.25
2019-01-03T23:07:48.448Z,18.22
2019-01-03T23:11:48.456Z,18.18
2019-01-03T23:13:48.498Z,18.15
2019-01-03T23:17:48.452Z,18.14
2019-01-03T23:19:48.455Z,18.13
2019-01-03T23:23:48.475Z,18.10
2019-01-03T23:25:48.468Z,18.07
2019-01-03T23:29:48.689Z,18.05
2019-01-03T23:31:48.808Z,18.03
2019-01-03T23:35:48.516Z,17.98
2019-01-03T23:37:48.493Z,17.99
2019-01-03T23:41:48.489Z,17.98
2019-01-03T23:43:48.466Z,17.96
2019-01-03T23:47:49.550Z,17.91
2019-01-03T23:49:48.514Z,17.88
2019-01-03T23:53:48.454Z,17.89
2019-01-03T23:55:48.484Z,17.88
